Athens, Texas
Current Conditions -  °F | °C
As of 9:35 PM on Saturday 22 Nov 2014 (Local Time) from KF44 Reporting Station
Moderate Rain Moderate Rain  
Wind Chill: 59°   Ceiling: 10000
Heat Index: 59°   Visibility: 7mi
Dew Point: 57°   Wind: 0mph
Humidity: 94%   Direction: NA
Pressure: 29.78"   Gusts: NA
Location:  32.2°N, 95.85°W
Report Text: KF44 230335Z AUTO 00000KT 7SM RA SCT085 OVC100 15/14 A2978 RMK AO2 LTG DSNT S P0006
Loading
Personal Weather Stations






























Interactive Weather Map New forecast layout! Learn more

10-Day Weather Forecast

Advertisements
Track Severe Weather on mobile